createdAt,value
2019-03-24T00:00:46.393Z,100918.58
2019-03-24T00:03:17.515Z,100916.92
2019-03-24T00:05:46.958Z,100924.02
2019-03-24T00:08:16.364Z,100915.30
2019-03-24T00:10:46.088Z,100916.31
2019-03-24T00:13:15.579Z,100915.88
2019-03-24T00:15:45.002Z,100915.88
2019-03-24T00:18:14.417Z,100921.13
2019-03-24T00:20:43.880Z,100917.16
2019-03-24T00:23:14.238Z,100918.46
2019-03-24T00:25:44.620Z,100919.36
2019-03-24T00:28:14.053Z,100929.47
2019-03-24T00:30:43.593Z,100923.34
2019-03-24T00:33:13.123Z,100919.84
2019-03-24T00:35:42.623Z,100921.63
2019-03-24T00:38:12.458Z,100919.88
2019-03-24T00:40:41.885Z,100919.47
2019-03-24T00:43:11.370Z,100926.55
2019-03-24T00:45:41.903Z,100931.83
2019-03-24T00:48:11.324Z,100936.25
2019-03-24T00:50:40.784Z,100927.97
2019-03-24T00:53:10.229Z,100930.19
2019-03-24T00:55:39.681Z,100934.11
2019-03-24T00:58:09.130Z,100937.17
2019-03-24T01:00:46.625Z,100942.02
2019-03-24T01:03:16.276Z,100949.05
2019-03-24T01:05:46.483Z,100944.75
2019-03-24T01:08:16.298Z,100950.06
2019-03-24T01:10:45.818Z,100951.84
2019-03-24T01:13:15.871Z,100951.44
2019-03-24T01:15:48.043Z,100948.45
2019-03-24T01:18:17.362Z,100953.33
2019-03-24T01:20:46.856Z,100947.24
2019-03-24T01:23:16.291Z,100949.94
2019-03-24T01:25:46.095Z,100945.19
2019-03-24T01:28:15.729Z,100945.73
2019-03-24T01:30:45.259Z,100952.34
2019-03-24T01:33:14.671Z,100949.30
2019-03-24T01:35:44.099Z,100949.78
2019-03-24T01:38:14.482Z,100953.34
2019-03-24T01:40:43.976Z,100953.81
2019-03-24T01:43:14.383Z,100952.53
2019-03-24T01:45:43.954Z,100952.98
2019-03-24T01:48:14.354Z,100951.30
2019-03-24T01:50:44.822Z,100953.06
2019-03-24T01:53:14.234Z,100948.70
2019-03-24T01:55:43.856Z,100946.11
2019-03-24T01:58:13.310Z,100944.38
2019-03-24T02:00:43.867Z,100951.80
2019-03-24T02:03:13.283Z,100950.55
2019-03-24T02:05:42.760Z,100943.16
2019-03-24T02:08:12.219Z,100955.39
2019-03-24T02:10:41.645Z,100949.73
2019-03-24T02:13:11.075Z,100949.80
2019-03-24T02:15:40.657Z,100949.83
2019-03-24T02:18:10.158Z,100944.66
2019-03-24T02:20:39.583Z,100944.66
2019-03-24T02:23:09.052Z,100948.98
2019-03-24T02:25:38.534Z,100944.67
2019-03-24T02:28:07.969Z,100939.42
2019-03-24T02:30:37.445Z,100939.42
2019-03-24T02:33:06.879Z,100941.98
2019-03-24T02:35:36.299Z,100943.73
2019-03-24T02:38:05.792Z,100943.73
2019-03-24T02:40:35.326Z,100941.16
2019-03-24T02:43:04.855Z,100944.25
2019-03-24T02:45:34.290Z,100945.13
2019-03-24T02:48:03.777Z,100943.40
2019-03-24T02:50:33.202Z,100945.64
2019-03-24T02:53:02.630Z,100946.97
2019-03-24T02:55:33.045Z,100942.61
2019-03-24T02:58:02.586Z,100942.61
2019-03-24T03:00:32.073Z,100939.13
2019-03-24T03:03:01.509Z,100938.27
2019-03-24T03:05:30.926Z,100940.06
2019-03-24T03:08:00.555Z,100938.78
2019-03-24T03:10:30.015Z,100943.14
2019-03-24T03:12:59.549Z,100943.16
2019-03-24T03:15:28.981Z,100941.91
2019-03-24T03:17:58.550Z,100935.37
2019-03-24T03:20:28.040Z,100935.82
2019-03-24T03:22:57.568Z,100931.51
2019-03-24T03:25:27.004Z,100933.70
2019-03-24T03:27:56.472Z,100937.23
2019-03-24T03:30:25.903Z,100936.81
2019-03-24T03:32:55.400Z,100925.03
2019-03-24T03:35:24.850Z,100928.13
2019-03-24T03:37:54.367Z,100921.59
2019-03-24T03:40:24.856Z,100926.81
2019-03-24T03:42:54.349Z,100922.89
2019-03-24T03:45:28.440Z,100917.22
2019-03-24T03:47:57.854Z,100925.95
2019-03-24T03:50:27.622Z,100926.82
2019-03-24T03:52:57.103Z,100923.34
2019-03-24T03:55:26.600Z,100925.08
2019-03-24T03:57:56.035Z,100922.89
2019-03-24T04:00:34.312Z,100921.16
2019-03-24T04:03:06.271Z,100925.08
2019-03-24T04:05:35.862Z,100928.13
2019-03-24T04:08:05.765Z,100930.78
2019-03-24T04:10:35.310Z,100931.19
2019-03-24T04:13:04.817Z,100934.27
2019-03-24T04:15:34.263Z,100927.30
2019-03-24T04:18:04.873Z,100923.38
2019-03-24T04:20:37.450Z,100921.20
2019-03-24T04:23:06.881Z,100915.52
2019-03-24T04:25:36.304Z,100920.35
2019-03-24T04:28:05.914Z,100926.89
2019-03-24T04:30:35.381Z,100928.21
2019-03-24T04:33:05.182Z,100925.17
2019-03-24T04:35:34.619Z,100926.03
2019-03-24T04:38:04.136Z,100934.77
2019-03-24T04:40:33.557Z,100929.96
2019-03-24T04:43:02.995Z,100920.36
2019-03-24T04:45:32.435Z,100920.36
2019-03-24T04:48:01.900Z,100917.31
2019-03-24T04:50:31.449Z,100921.67
2019-03-24T04:53:00.938Z,100920.38
2019-03-24T04:55:30.311Z,100923.00
2019-03-24T04:58:00.917Z,100921.25
2019-03-24T05:00:38.031Z,100923.88
2019-03-24T05:03:07.510Z,100926.03
2019-03-24T05:05:37.477Z,100925.17
2019-03-24T05:08:07.556Z,100925.17
2019-03-24T05:10:36.982Z,100920.39
2019-03-24T05:13:06.481Z,100919.08
2019-03-24T05:15:35.985Z,100911.23
2019-03-24T05:18:05.625Z,100903.39
2019-03-24T05:20:35.099Z,100905.14
2019-03-24T05:23:04.623Z,100908.59
2019-03-24T05:25:35.059Z,100901.63
2019-03-24T05:28:04.492Z,100897.28
2019-03-24T05:30:33.978Z,100897.25
2019-03-24T05:33:03.447Z,100895.94
2019-03-24T05:35:32.967Z,100897.69
2019-03-24T05:38:02.466Z,100898.95
2019-03-24T05:40:37.131Z,100901.13
2019-03-24T05:43:07.472Z,100898.08
2019-03-24T05:45:37.996Z,100893.24
2019-03-24T05:48:07.449Z,100898.91
2019-03-24T05:50:36.914Z,100893.67
2019-03-24T05:53:06.398Z,100882.28
2019-03-24T05:55:36.921Z,100892.73
2019-03-24T05:58:06.398Z,100887.93
2019-03-24T06:00:35.844Z,100884.39
2019-03-24T06:03:05.362Z,100887.42
2019-03-24T06:05:34.804Z,100889.11
2019-03-24T06:08:04.300Z,100881.66
2019-03-24T06:10:33.820Z,100881.66
2019-03-24T06:13:03.294Z,100888.13
2019-03-24T06:15:32.890Z,100890.72
2019-03-24T06:18:02.312Z,100890.72
2019-03-24T06:20:31.820Z,100893.26
2019-03-24T06:23:01.325Z,100900.64
2019-03-24T06:25:30.794Z,100893.59
2019-03-24T06:28:02.403Z,100895.24
2019-03-24T06:30:32.023Z,100900.86
2019-03-24T06:33:01.461Z,100896.02
2019-03-24T06:35:30.921Z,100899.88
2019-03-24T06:38:00.385Z,100895.45
2019-03-24T06:40:29.826Z,100899.78
2019-03-24T06:42:59.241Z,100893.52
2019-03-24T06:45:29.060Z,100893.92
2019-03-24T06:47:58.563Z,100896.92
2019-03-24T06:50:28.079Z,100902.05
2019-03-24T06:52:58.557Z,100897.11
2019-03-24T06:55:28.036Z,100897.45
2019-03-24T06:57:59.391Z,100900.41
2019-03-24T07:00:28.879Z,100891.16
2019-03-24T07:02:58.345Z,100895.85
2019-03-24T07:05:28.069Z,100900.94
2019-03-24T07:07:57.483Z,100890.63
2019-03-24T07:10:26.915Z,100887.34
2019-03-24T07:12:56.378Z,100886.30
2019-03-24T07:15:25.874Z,100885.38
2019-03-24T07:17:55.364Z,100881.89
2019-03-24T07:20:24.840Z,100878.76
2019-03-24T07:22:54.267Z,100886.41
2019-03-24T07:25:23.761Z,100880.85
2019-03-24T07:27:53.178Z,100872.77
2019-03-24T07:30:22.743Z,100872.55
2019-03-24T07:32:52.162Z,100871.65
2019-03-24T07:35:21.613Z,100868.13
2019-03-24T07:37:51.026Z,100875.89
2019-03-24T07:40:20.523Z,100870.97
2019-03-24T07:42:51.585Z,100866.40
2019-03-24T07:45:21.436Z,100864.66
2019-03-24T07:47:51.011Z,100856.27
2019-03-24T07:50:20.468Z,100853.66
2019-03-24T07:52:49.896Z,100856.15
2019-03-24T07:55:19.400Z,100850.77
2019-03-24T07:57:48.976Z,100853.72
2019-03-24T08:00:21.591Z,100849.23
2019-03-24T08:02:51.847Z,100849.10
2019-03-24T08:05:21.383Z,100848.81
2019-03-24T08:07:50.897Z,100848.75
2019-03-24T08:10:20.309Z,100840.34
2019-03-24T08:12:49.881Z,100834.98
2019-03-24T08:15:19.366Z,100839.16
2019-03-24T08:17:49.061Z,100831.97
2019-03-24T08:20:18.478Z,100830.39
2019-03-24T08:22:47.937Z,100827.45
2019-03-24T08:25:19.133Z,100836.27
2019-03-24T08:27:48.691Z,100825.69
2019-03-24T08:30:21.145Z,100830.39
2019-03-24T08:32:50.655Z,100827.07
2019-03-24T08:35:20.109Z,100820.16
2019-03-24T08:37:49.559Z,100824.98
2019-03-24T08:40:19.936Z,100829.25
2019-03-24T08:42:51.390Z,100823.22
2019-03-24T08:45:28.230Z,100812.48
2019-03-24T08:47:58.526Z,100814.03
2019-03-24T08:50:28.051Z,100798.42
2019-03-24T08:52:57.427Z,100794.30
2019-03-24T08:55:26.831Z,100788.70
2019-03-24T08:57:56.286Z,100786.41
2019-03-24T09:00:30.648Z,100774.66
2019-03-24T09:02:56.840Z,100771.72
2019-03-24T09:05:26.324Z,100776.13
2019-03-24T09:07:56.775Z,100771.63
2019-03-24T09:10:26.345Z,100762.35
2019-03-24T09:12:55.769Z,100773.51
2019-03-24T09:15:25.186Z,100764.23
2019-03-24T09:17:54.620Z,100766.29
2019-03-24T09:20:24.230Z,100764.10
2019-03-24T09:22:53.663Z,100763.28
2019-03-24T09:25:24.343Z,100760.01
2019-03-24T09:27:53.849Z,100763.31
2019-03-24T09:30:31.641Z,100759.70
2019-03-24T09:33:01.136Z,100748.04
2019-03-24T09:35:30.613Z,100746.27
2019-03-24T09:38:00.220Z,100746.98
2019-03-24T09:40:34.273Z,100751.41
2019-03-24T09:43:05.760Z,100745.80
2019-03-24T09:45:35.334Z,100740.61
2019-03-24T09:48:05.502Z,100737.14
2019-03-24T09:50:35.068Z,100727.89
2019-03-24T09:53:04.965Z,100731.21
2019-03-24T09:55:34.488Z,100722.81
2019-03-24T09:58:04.057Z,100716.25
2019-03-24T10:00:34.613Z,100709.38
2019-03-24T10:03:04.330Z,100712.73
2019-03-24T10:05:33.772Z,100701.13
2019-03-24T10:08:03.466Z,100691.13
2019-03-24T10:10:32.978Z,100690.84
2019-03-24T10:13:02.521Z,100685.18
2019-03-24T10:15:31.951Z,100692.08
2019-03-24T10:18:01.426Z,100686.00
2019-03-24T10:20:30.851Z,100677.01
2019-03-24T10:23:00.350Z,100676.83
2019-03-24T10:25:29.767Z,100674.27
2019-03-24T10:27:59.304Z,100666.20
2019-03-24T10:30:28.724Z,100665.33
2019-03-24T10:32:58.175Z,100660.13
2019-03-24T10:35:27.624Z,100653.44
2019-03-24T10:37:57.142Z,100649.06
2019-03-24T10:40:28.945Z,100640.80
2019-03-24T10:42:58.032Z,100637.50
2019-03-24T10:45:27.441Z,100627.34
2019-03-24T10:47:56.977Z,100636.61
2019-03-24T10:50:26.446Z,100631.29
2019-03-24T10:52:55.973Z,100633.02
2019-03-24T10:55:25.410Z,100622.75
2019-03-24T10:57:54.896Z,100627.06
2019-03-24T11:00:38.743Z,100626.77
2019-03-24T11:03:08.239Z,100621.94
2019-03-24T11:05:37.802Z,100627.98
2019-03-24T11:08:08.343Z,100618.73
2019-03-24T11:10:37.879Z,100613.09
2019-03-24T11:13:07.378Z,100608.80
2019-03-24T11:15:36.785Z,100607.41
2019-03-24T11:18:06.222Z,100604.23
2019-03-24T11:20:35.688Z,100598.56
2019-03-24T11:23:05.181Z,100600.47
2019-03-24T11:25:34.627Z,100587.73
2019-03-24T11:28:04.177Z,100581.83
2019-03-24T11:30:33.607Z,100583.89
2019-03-24T11:33:03.155Z,100580.45
2019-03-24T11:35:32.659Z,100571.48
2019-03-24T11:38:02.093Z,100560.56
2019-03-24T11:40:31.788Z,100550.78
2019-03-24T11:43:01.246Z,100542.89
2019-03-24T11:45:30.729Z,100539.67
2019-03-24T11:48:00.207Z,100533.45
2019-03-24T11:50:29.677Z,100529.20
2019-03-24T11:52:59.126Z,100509.45
2019-03-24T11:55:28.592Z,100507.73
2019-03-24T11:58:05.666Z,100504.69
2019-03-24T12:00:37.631Z,100505.92
2019-03-24T12:03:07.184Z,100497.30
2019-03-24T12:05:36.632Z,100503.03
2019-03-24T12:08:06.283Z,100494.45
2019-03-24T12:10:35.843Z,100484.93
2019-03-24T12:13:05.624Z,100482.27
2019-03-24T12:15:35.120Z,100472.09
2019-03-24T12:18:04.863Z,100468.01
2019-03-24T12:20:34.289Z,100468.69
2019-03-24T12:23:03.774Z,100454.49
2019-03-24T12:25:33.203Z,100454.49
2019-03-24T12:28:02.706Z,100452.44
2019-03-24T12:30:32.169Z,100445.24
2019-03-24T12:33:01.607Z,100442.74
2019-03-24T12:35:31.065Z,100443.82
2019-03-24T12:38:00.481Z,100424.70
2019-03-24T12:40:29.950Z,100424.08
2019-03-24T12:42:59.485Z,100422.84
2019-03-24T12:45:28.992Z,100423.58
2019-03-24T12:47:58.454Z,100412.41
2019-03-24T12:50:31.767Z,100405.01
2019-03-24T12:52:59.008Z,100395.86
2019-03-24T12:55:28.482Z,100392.84
2019-03-24T12:57:58.023Z,100392.91
2019-03-24T13:00:33.122Z,100400.61
2019-03-24T13:03:02.786Z,100395.23
2019-03-24T13:05:33.399Z,100389.58
2019-03-24T13:08:14.174Z,100386.80
2019-03-24T13:10:44.670Z,100384.27
2019-03-24T13:13:15.796Z,100378.30
2019-03-24T13:15:45.292Z,100373.75
2019-03-24T13:18:14.804Z,100377.52
2019-03-24T13:20:44.371Z,100371.02
2019-03-24T13:23:13.785Z,100369.22
2019-03-24T13:25:43.299Z,100368.98
2019-03-24T13:28:12.760Z,100361.28
2019-03-24T13:30:42.279Z,100372.68
2019-03-24T13:33:11.821Z,100369.22
2019-03-24T13:35:41.311Z,100360.43
2019-03-24T13:38:10.868Z,100348.02
2019-03-24T13:40:40.323Z,100335.63
2019-03-24T13:43:09.847Z,100328.45
2019-03-24T13:45:41.324Z,100319.48
2019-03-24T13:48:10.738Z,100316.36
2019-03-24T13:50:40.179Z,100328.55
2019-03-24T13:53:10.667Z,100326.54
2019-03-24T13:55:40.091Z,100326.57
2019-03-24T13:58:11.982Z,100323.32
2019-03-24T14:00:40.884Z,100307.12
2019-03-24T14:03:10.358Z,100307.12
2019-03-24T14:05:40.089Z,100308.41
2019-03-24T14:08:09.558Z,100304.09
2019-03-24T14:10:39.081Z,100307.37
2019-03-24T14:13:08.589Z,100296.59
2019-03-24T14:15:38.016Z,100305.48
2019-03-24T14:18:07.476Z,100294.52
2019-03-24T14:20:43.479Z,100296.21
2019-03-24T14:23:08.113Z,100294.00
2019-03-24T14:25:37.785Z,100282.23
2019-03-24T14:28:07.369Z,100272.61
2019-03-24T14:30:47.611Z,100270.91
2019-03-24T14:33:17.149Z,100270.66
2019-03-24T14:35:46.670Z,100268.84
2019-03-24T14:38:16.080Z,100270.94
2019-03-24T14:40:46.650Z,100249.97
2019-03-24T14:43:16.353Z,100242.11
2019-03-24T14:45:46.800Z,100243.50
2019-03-24T14:48:16.321Z,100241.03
2019-03-24T14:50:54.067Z,100237.31
2019-03-24T14:53:17.006Z,100233.52
2019-03-24T14:55:46.508Z,100238.84
2019-03-24T14:58:16.035Z,100234.23
2019-03-24T15:00:45.626Z,100235.47
2019-03-24T15:03:15.363Z,100237.27
2019-03-24T15:05:47.634Z,100233.65
2019-03-24T15:08:17.183Z,100237.43
2019-03-24T15:10:46.598Z,100227.91
2019-03-24T15:13:17.172Z,100221.98
2019-03-24T15:15:46.663Z,100223.89
2019-03-24T15:18:16.109Z,100233.14
2019-03-24T15:20:45.525Z,100232.97
2019-03-24T15:23:15.067Z,100229.92
2019-03-24T15:25:44.557Z,100222.95
2019-03-24T15:28:14.134Z,100217.20
2019-03-24T15:30:43.556Z,100223.83
2019-03-24T15:33:12.998Z,100228.65
2019-03-24T15:35:44.084Z,100225.47
2019-03-24T15:38:13.512Z,100226.63
2019-03-24T15:40:42.995Z,100228.79
2019-03-24T15:43:12.444Z,100226.02
2019-03-24T15:45:41.875Z,100225.31
2019-03-24T15:48:11.437Z,100224.29
2019-03-24T15:50:40.855Z,100224.23
2019-03-24T15:53:10.462Z,100219.86
2019-03-24T15:55:39.944Z,100216.17
2019-03-24T15:58:09.498Z,100212.81
2019-03-24T16:00:47.426Z,100206.26
2019-03-24T16:03:16.930Z,100210.64
2019-03-24T16:05:47.490Z,100205.67
2019-03-24T16:08:17.054Z,100219.13
2019-03-24T16:10:46.605Z,100212.52
2019-03-24T16:13:16.145Z,100211.73
2019-03-24T16:15:45.688Z,100212.73
2019-03-24T16:18:15.120Z,100212.77
2019-03-24T16:20:44.561Z,100212.26
2019-03-24T16:23:13.980Z,100212.25
2019-03-24T16:25:43.469Z,100211.53
2019-03-24T16:28:12.993Z,100213.73
2019-03-24T16:30:42.476Z,100212.72
2019-03-24T16:33:13.573Z,100211.41
2019-03-24T16:35:42.998Z,100210.34
2019-03-24T16:38:14.491Z,100204.90
2019-03-24T16:40:43.792Z,100205.02
2019-03-24T16:43:13.218Z,100204.69
2019-03-24T16:45:42.724Z,100203.17
2019-03-24T16:48:12.342Z,100197.61
2019-03-24T16:50:41.769Z,100188.47
2019-03-24T16:53:11.307Z,100186.02
2019-03-24T16:55:40.809Z,100185.70
2019-03-24T16:58:10.304Z,100180.53
2019-03-24T17:00:40.894Z,100180.20
2019-03-24T17:03:10.418Z,100179.45
2019-03-24T17:05:39.833Z,100176.99
2019-03-24T17:08:09.299Z,100176.19
2019-03-24T17:10:38.716Z,100174.96
2019-03-24T17:13:08.175Z,100175.48
2019-03-24T17:15:38.639Z,100171.17
2019-03-24T17:18:08.153Z,100169.39
2019-03-24T17:20:37.573Z,100169.85
2019-03-24T17:23:07.180Z,100173.76
2019-03-24T17:25:36.583Z,100168.07
2019-03-24T17:28:06.158Z,100163.83
2019-03-24T17:30:35.643Z,100169.75
2019-03-24T17:33:05.150Z,100159.97
2019-03-24T17:35:34.755Z,100154.80
2019-03-24T17:38:04.747Z,100158.48
2019-03-24T17:40:38.861Z,100155.55
2019-03-24T17:43:06.024Z,100156.50
2019-03-24T17:45:35.612Z,100154.89
2019-03-24T17:48:05.560Z,100155.93
2019-03-24T17:50:35.164Z,100151.16
2019-03-24T17:53:06.685Z,100154.78
2019-03-24T17:55:36.878Z,100153.46
2019-03-24T17:58:06.594Z,100143.09
2019-03-24T18:00:46.409Z,100147.98
2019-03-24T18:03:15.805Z,100145.45
2019-03-24T18:05:46.384Z,100145.85
2019-03-24T18:08:15.805Z,100144.94
2019-03-24T18:10:45.305Z,100142.23
2019-03-24T18:13:15.096Z,100140.00
2019-03-24T18:15:44.656Z,100141.31
2019-03-24T18:18:14.089Z,100142.30
2019-03-24T18:20:43.572Z,100144.94
2019-03-24T18:23:13.077Z,100139.25
2019-03-24T18:25:42.482Z,100143.16
2019-03-24T18:28:11.926Z,100146.37
2019-03-24T18:30:41.352Z,100153.61
2019-03-24T18:33:10.799Z,100142.89
2019-03-24T18:35:40.374Z,100143.48
2019-03-24T18:38:09.855Z,100149.28
2019-03-24T18:40:39.441Z,100143.25
2019-03-24T18:43:08.969Z,100141.42
2019-03-24T18:45:38.612Z,100141.07
2019-03-24T18:48:08.179Z,100139.45
2019-03-24T18:50:37.788Z,100142.09
2019-03-24T18:53:07.321Z,100139.09
2019-03-24T18:55:36.823Z,100132.60
2019-03-24T18:58:06.383Z,100139.26
2019-03-24T19:00:35.834Z,100126.33
2019-03-24T19:03:05.410Z,100133.18
2019-03-24T19:05:35.294Z,100121.52
2019-03-24T19:08:05.209Z,100128.73
2019-03-24T19:10:34.627Z,100127.67
2019-03-24T19:13:04.390Z,100127.42
2019-03-24T19:15:33.847Z,100133.22
2019-03-24T19:18:03.433Z,100131.14
2019-03-24T19:20:32.979Z,100125.51
2019-03-24T19:23:02.465Z,100123.06
2019-03-24T19:25:31.969Z,100120.88
2019-03-24T19:28:01.454Z,100132.30
2019-03-24T19:30:34.114Z,100117.38
2019-03-24T19:33:03.785Z,100118.30
2019-03-24T19:35:33.360Z,100115.25
2019-03-24T19:38:02.905Z,100117.48
2019-03-24T19:40:33.568Z,100110.54
2019-03-24T19:43:03.140Z,100105.31
2019-03-24T19:45:32.892Z,100110.19
2019-03-24T19:48:02.457Z,100104.50
2019-03-24T19:50:32.075Z,100104.50
2019-03-24T19:53:01.495Z,100103.64
2019-03-24T19:55:31.005Z,100089.54
2019-03-24T19:58:00.525Z,100094.77
2019-03-24T20:00:30.221Z,100093.14
2019-03-24T20:02:59.717Z,100089.73
2019-03-24T20:05:29.168Z,100088.92
2019-03-24T20:07:58.780Z,100081.92
2019-03-24T20:10:28.221Z,100091.16
2019-03-24T20:15:27.708Z,100082.23
2019-03-24T20:17:58.488Z,100086.78
2019-03-24T20:20:28.015Z,100088.26
2019-03-24T20:22:57.658Z,100081.36
2019-03-24T20:25:27.214Z,100074.42
2019-03-24T20:27:56.816Z,100062.96
2019-03-24T20:30:26.516Z,100065.44
2019-03-24T20:32:58.049Z,100056.38
2019-03-24T20:35:27.472Z,100060.08
2019-03-24T20:37:56.915Z,100051.90
2019-03-24T20:40:26.406Z,100051.59
2019-03-24T20:42:56.000Z,100048.75
2019-03-24T20:45:25.431Z,100044.02
2019-03-24T20:47:54.994Z,100037.99
2019-03-24T20:50:24.566Z,100038.05
2019-03-24T20:53:03.677Z,100026.69
2019-03-24T20:55:25.337Z,100025.12
2019-03-24T20:57:54.861Z,100028.80
2019-03-24T21:00:34.435Z,100032.59
2019-03-24T21:03:05.215Z,100037.55
2019-03-24T21:05:34.838Z,100031.92
2019-03-24T21:08:04.479Z,100037.65
2019-03-24T21:10:34.088Z,100034.23
2019-03-24T21:13:03.835Z,100031.60
2019-03-24T21:15:33.314Z,100027.66
2019-03-24T21:18:03.924Z,100024.11
2019-03-24T21:20:33.425Z,100027.12
2019-03-24T21:23:03.024Z,100027.52
2019-03-24T21:25:32.539Z,100017.52
2019-03-24T21:28:03.250Z,100014.48
2019-03-24T21:30:35.061Z,100018.03
2019-03-24T21:33:04.830Z,100011.03
2019-03-24T21:35:34.501Z,100006.63
2019-03-24T21:38:04.188Z,100005.36
2019-03-24T21:40:33.777Z,99994.33
2019-03-24T21:43:03.304Z,99997.36
2019-03-24T21:45:32.804Z,99993.87
2019-03-24T21:48:02.224Z,99988.65
2019-03-24T21:50:32.805Z,99986.06
2019-03-24T21:53:02.280Z,99989.25
2019-03-24T21:55:31.712Z,99992.89
2019-03-24T21:58:01.111Z,99989.17
2019-03-24T22:00:33.148Z,99992.81
2019-03-24T22:03:04.403Z,99987.20
2019-03-24T22:05:34.101Z,99982.08
2019-03-24T22:08:03.711Z,99978.77
2019-03-24T22:10:33.426Z,99978.86
2019-03-24T22:13:03.940Z,99977.19
2019-03-24T22:15:33.486Z,99969.38
2019-03-24T22:18:03.108Z,99963.72
2019-03-24T22:20:32.731Z,99963.89
2019-03-24T22:23:02.152Z,99967.02
2019-03-24T22:25:31.664Z,99964.08
2019-03-24T22:28:01.400Z,99957.73
2019-03-24T22:30:30.999Z,99960.36
2019-03-24T22:33:00.513Z,99949.16
2019-03-24T22:35:32.017Z,99945.39
2019-03-24T22:38:01.502Z,99942.54
2019-03-24T22:40:32.138Z,99944.61
2019-03-24T22:43:01.578Z,99942.28
2019-03-24T22:45:31.157Z,99943.37
2019-03-24T22:48:00.616Z,99935.61
2019-03-24T22:50:30.212Z,99931.27
2019-03-24T22:52:59.812Z,99933.03
2019-03-24T22:55:29.406Z,99929.54
2019-03-24T22:57:58.939Z,99926.95
2019-03-24T23:00:33.036Z,99926.91
2019-03-24T23:03:04.402Z,99927.81
2019-03-24T23:05:33.836Z,99927.81
2019-03-24T23:08:03.434Z,99927.81
2019-03-24T23:10:32.958Z,99927.81
2019-03-24T23:13:05.262Z,99920.75
2019-03-24T23:15:34.739Z,99910.23
2019-03-24T23:18:04.495Z,99912.86
2019-03-24T23:20:33.993Z,99904.56
2019-03-24T23:23:03.458Z,99903.70
2019-03-24T23:25:33.024Z,99902.84
2019-03-24T23:28:02.482Z,99902.55
2019-03-24T23:30:32.057Z,99892.95
2019-03-24T23:33:01.617Z,99885.20
2019-03-24T23:35:31.273Z,99879.16
2019-03-24T23:38:01.811Z,99886.23
2019-03-24T23:40:31.316Z,99878.11
2019-03-24T23:43:00.977Z,99881.27
2019-03-24T23:45:30.468Z,99881.27
2019-03-24T23:48:00.001Z,99880.05
2019-03-24T23:50:29.694Z,99877.02
2019-03-24T23:52:59.172Z,99879.64
2019-03-24T23:55:28.848Z,99877.92
2019-03-24T23:57:58.284Z,99869.17
